createdAt,value
2022-10-23T00:01:46.688Z,0.70
2022-10-23T00:04:17.080Z,0.70
2022-10-23T00:06:48.240Z,0.57
2022-10-23T00:09:21.524Z,0.90
2022-10-23T00:11:54.770Z,0.93
2022-10-23T00:14:25.590Z,0.70
2022-10-23T00:16:56.047Z,0.75
2022-10-23T00:19:24.331Z,0.65
2022-10-23T00:21:52.391Z,0.60
2022-10-23T00:24:26.266Z,0.98
2022-10-23T00:26:55.715Z,0.70
2022-10-23T00:29:29.228Z,0.80
2022-10-23T00:31:57.386Z,0.80
2022-10-23T00:34:25.141Z,0.85
2022-10-23T00:36:55.347Z,0.90
2022-10-23T00:39:23.833Z,0.82
2022-10-23T00:41:51.947Z,1.00
2022-10-23T00:45:00.954Z,1.00
2022-10-23T00:47:30.150Z,0.63
2022-10-23T00:50:00.338Z,0.70
2022-10-23T00:52:28.911Z,0.80
2022-10-23T00:54:57.891Z,0.73
2022-10-23T00:57:26.082Z,0.77
2022-10-23T00:59:54.201Z,0.90
2022-10-23T01:02:25.917Z,0.88
2022-10-23T01:04:55.119Z,0.80
2022-10-23T01:07:30.397Z,0.82
2022-10-23T01:10:07.050Z,1.38
2022-10-23T01:12:45.449Z,1.00
2022-10-23T01:15:20.776Z,1.00
2022-10-23T01:17:55.247Z,1.10
2022-10-23T01:23:23.756Z,0.52
2022-10-23T01:26:07.854Z,0.75
2022-10-23T01:28:43.548Z,1.20
2022-10-23T01:31:17.415Z,0.80
2022-10-23T01:33:49.988Z,0.80
2022-10-23T01:36:30.432Z,0.77
2022-10-23T01:41:37.494Z,1.05
2022-10-23T01:44:12.271Z,0.90
2022-10-23T01:46:41.292Z,0.88
2022-10-23T01:49:13.588Z,0.80
2022-10-23T01:51:46.779Z,0.90
2022-10-23T01:54:17.844Z,0.70
2022-10-23T01:56:50.562Z,0.77
2022-10-23T01:59:32.144Z,0.70
2022-10-23T02:02:02.003Z,1.02
2022-10-23T02:04:39.299Z,0.80
2022-10-23T02:07:08.169Z,0.73
2022-10-23T02:09:36.635Z,0.80
2022-10-23T02:12:08.863Z,0.85
2022-10-23T02:14:52.423Z,1.15
2022-10-23T02:17:27.761Z,1.00
2022-10-23T02:20:06.897Z,1.13
2022-10-23T02:22:39.902Z,0.77
2022-10-23T02:25:12.169Z,0.60
2022-10-23T02:27:46.190Z,0.90
2022-10-23T02:30:18.684Z,0.85
2022-10-23T02:32:55.848Z,0.98
2022-10-23T02:35:27.256Z,0.80
2022-10-23T02:38:04.685Z,1.00
2022-10-23T02:40:39.923Z,1.00
2022-10-23T02:43:15.268Z,0.85
2022-10-23T02:45:53.728Z,0.90
2022-10-23T02:48:28.068Z,1.10
2022-10-23T02:51:04.082Z,0.90
2022-10-23T02:53:40.313Z,0.75
2022-10-23T02:56:13.958Z,0.90
2022-10-23T02:58:49.612Z,0.80
2022-10-23T03:01:23.997Z,0.80
2022-10-23T03:03:54.575Z,1.05
2022-10-23T03:06:24.901Z,1.00
2022-10-23T03:09:08.455Z,0.90
2022-10-23T03:11:38.720Z,0.98
2022-10-23T03:14:06.643Z,1.00
2022-10-23T03:16:35.902Z,1.00
2022-10-23T03:19:03.846Z,0.70
2022-10-23T03:21:32.367Z,0.60
2022-10-23T03:24:02.460Z,0.63
2022-10-23T03:26:36.333Z,0.98
2022-10-23T03:29:05.363Z,0.93
2022-10-23T03:31:38.867Z,0.80
2022-10-23T03:34:11.041Z,0.80
2022-10-23T03:36:41.215Z,0.70
2022-10-23T03:39:12.851Z,0.82
2022-10-23T03:41:43.850Z,0.82
2022-10-23T03:44:25.932Z,0.93
2022-10-23T03:46:57.674Z,1.23
2022-10-23T03:49:25.979Z,1.00
2022-10-23T03:54:36.368Z,1.20
2022-10-23T03:57:04.622Z,1.20
2022-10-23T03:59:32.811Z,1.10
2022-10-23T04:02:04.895Z,1.30
2022-10-23T04:04:35.874Z,1.30
2022-10-23T04:07:03.767Z,1.20
2022-10-23T04:09:42.926Z,1.17
2022-10-23T04:12:16.183Z,1.08
2022-10-23T04:14:44.889Z,0.90
2022-10-23T04:17:14.166Z,1.10
2022-10-23T04:19:43.820Z,1.02
2022-10-23T04:22:11.624Z,1.20
2022-10-23T04:24:45.361Z,1.15
2022-10-23T04:27:18.179Z,0.80
2022-10-23T04:29:54.255Z,1.45
2022-10-23T04:32:26.129Z,1.20
2022-10-23T04:34:55.837Z,0.95
2022-10-23T04:37:23.967Z,1.33
2022-10-23T04:39:51.927Z,1.02
2022-10-23T04:42:19.836Z,1.30
2022-10-23T04:44:48.686Z,1.13
2022-10-23T04:47:16.624Z,0.75
2022-10-23T04:49:58.686Z,0.90
2022-10-23T04:52:57.875Z,1.10
2022-10-23T04:55:59.067Z,1.15
2022-10-23T04:58:36.271Z,0.95
2022-10-23T05:01:07.310Z,1.20
2022-10-23T05:03:36.673Z,1.02
2022-10-23T05:06:06.649Z,1.08
2022-10-23T05:08:52.908Z,1.10
2022-10-23T05:11:50.174Z,0.88
2022-10-23T05:14:25.299Z,1.25
2022-10-23T05:16:58.457Z,1.05
2022-10-23T05:19:38.770Z,0.88
2022-10-23T05:22:08.385Z,1.10
2022-10-23T05:25:03.069Z,0.90
2022-10-23T05:27:32.968Z,1.13
2022-10-23T05:30:00.826Z,1.17
2022-10-23T05:32:33.275Z,1.23
2022-10-23T05:35:04.002Z,1.27
2022-10-23T05:37:33.824Z,1.25
2022-10-23T05:40:10.453Z,0.90
2022-10-23T05:42:41.709Z,1.00
2022-10-23T05:45:12.175Z,0.95
2022-10-23T05:48:10.786Z,0.98
2022-10-23T05:51:06.309Z,1.00
2022-10-23T05:53:54.398Z,0.80
2022-10-23T05:56:41.488Z,1.17
2022-10-23T05:59:28.007Z,1.10
2022-10-23T06:02:14.088Z,1.05
2022-10-23T06:04:51.320Z,0.98
2022-10-23T06:07:50.704Z,1.20
2022-10-23T06:10:24.141Z,1.30
2022-10-23T06:12:54.367Z,1.10
2022-10-23T06:15:32.615Z,1.02
2022-10-23T06:18:20.726Z,0.93
2022-10-23T06:21:04.456Z,0.75
2022-10-23T06:23:33.045Z,0.63
2022-10-23T06:26:21.101Z,0.73
2022-10-23T06:29:12.239Z,0.90
2022-10-23T06:31:47.352Z,0.90
2022-10-23T06:34:17.935Z,0.90
2022-10-23T06:36:47.161Z,0.80
2022-10-23T06:39:33.504Z,0.77
2022-10-23T06:42:23.299Z,1.00
2022-10-23T06:45:07.234Z,0.90
2022-10-23T06:47:44.346Z,1.02
2022-10-23T06:50:48.470Z,0.93
2022-10-23T06:53:23.627Z,1.33
2022-10-23T06:56:00.415Z,0.80
2022-10-23T06:58:29.840Z,0.85
2022-10-23T07:01:08.668Z,0.98
2022-10-23T07:03:36.701Z,1.08
2022-10-23T07:06:09.989Z,1.20
2022-10-23T07:08:38.953Z,0.90
2022-10-23T07:11:31.960Z,0.95
2022-10-23T07:14:15.892Z,1.20
2022-10-23T07:16:43.984Z,0.95
2022-10-23T07:19:14.361Z,1.35
2022-10-23T07:21:53.946Z,0.70
2022-10-23T07:24:49.176Z,0.80
2022-10-23T07:27:41.830Z,0.50
2022-10-23T07:30:18.554Z,0.80
2022-10-23T07:32:51.551Z,0.88
2022-10-23T07:35:40.198Z,0.73
2022-10-23T07:38:15.008Z,1.02
2022-10-23T07:40:46.898Z,0.88
2022-10-23T07:43:18.465Z,0.93
2022-10-23T07:45:51.327Z,0.90
2022-10-23T07:48:51.494Z,0.65
2022-10-23T07:51:19.419Z,0.60
2022-10-23T07:53:51.438Z,1.27
2022-10-23T07:56:32.689Z,0.73
2022-10-23T07:59:20.753Z,1.00
2022-10-23T08:01:56.807Z,0.93
2022-10-23T08:04:36.154Z,1.05
2022-10-23T08:10:03.133Z,0.73
2022-10-23T08:12:34.372Z,0.80
2022-10-23T08:15:05.126Z,0.70
2022-10-23T08:17:50.271Z,0.77
2022-10-23T08:20:26.929Z,0.88
2022-10-23T08:22:57.751Z,0.50
2022-10-23T08:25:26.931Z,0.82
2022-10-23T08:28:27.820Z,0.80
2022-10-23T08:30:57.110Z,1.00
2022-10-23T08:33:35.677Z,0.88
2022-10-23T08:38:53.551Z,0.60
2022-10-23T08:41:28.466Z,0.50
2022-10-23T08:44:14.475Z,0.50
2022-10-23T08:47:12.609Z,0.55
2022-10-23T08:50:32.125Z,0.40
2022-10-23T08:53:13.308Z,0.70
2022-10-23T08:55:48.359Z,0.65
2022-10-23T08:58:19.681Z,0.60
2022-10-23T09:00:51.065Z,0.75
2022-10-23T09:03:19.522Z,0.57
2022-10-23T09:06:01.005Z,0.57
2022-10-23T09:08:48.292Z,0.40
2022-10-23T09:11:23.195Z,0.55
2022-10-23T09:14:16.698Z,0.40
2022-10-23T09:17:08.316Z,0.68
2022-10-23T09:19:39.337Z,0.35
2022-10-23T09:22:11.961Z,0.50
2022-10-23T09:24:44.036Z,0.40
2022-10-23T09:27:18.158Z,0.40
2022-10-23T09:29:54.256Z,0.40
2022-10-23T09:32:34.149Z,1.02
2022-10-23T09:35:02.108Z,1.23
2022-10-23T09:37:33.183Z,0.75
2022-10-23T09:40:20.895Z,0.68
2022-10-23T09:42:58.340Z,0.52
2022-10-23T09:45:34.416Z,0.47
2022-10-23T09:48:19.146Z,0.70
2022-10-23T09:50:52.422Z,0.43
2022-10-23T09:53:44.252Z,0.57
2022-10-23T09:56:29.759Z,0.68
2022-10-23T09:58:59.881Z,0.65
2022-10-23T10:01:33.801Z,0.20
2022-10-23T10:04:35.680Z,0.63
2022-10-23T10:07:19.771Z,0.40
2022-10-23T10:09:49.242Z,0.45
2022-10-23T10:12:44.315Z,0.32
2022-10-23T10:18:00.473Z,0.40
2022-10-23T10:21:03.824Z,0.40
2022-10-23T10:23:41.412Z,0.40
2022-10-23T10:26:20.667Z,0.82
2022-10-23T10:29:06.853Z,0.50
2022-10-23T10:31:57.435Z,0.60
2022-10-23T10:34:32.954Z,0.65
2022-10-23T10:37:12.774Z,0.28
2022-10-23T10:39:50.036Z,0.43
2022-10-23T10:42:47.781Z,0.50
2022-10-23T10:45:32.330Z,0.60
2022-10-23T10:48:42.015Z,0.40
2022-10-23T10:51:57.457Z,0.57
2022-10-23T10:54:45.463Z,0.88
2022-10-23T10:57:27.529Z,0.63
2022-10-23T11:00:03.190Z,0.38
2022-10-23T11:02:39.722Z,0.43
2022-10-23T11:05:19.928Z,0.50
2022-10-23T11:07:56.428Z,0.30
2022-10-23T11:10:24.522Z,0.50
2022-10-23T11:12:53.358Z,0.68
2022-10-23T11:15:29.380Z,0.40
2022-10-23T11:18:00.706Z,0.60
2022-10-23T11:21:09.351Z,0.60
2022-10-23T11:24:11.748Z,0.60
2022-10-23T11:26:52.842Z,0.40
2022-10-23T11:29:51.782Z,0.45
2022-10-23T11:32:43.730Z,0.35
2022-10-23T11:35:41.102Z,0.40
2022-10-23T11:38:18.687Z,0.30
2022-10-23T11:40:55.189Z,0.30
2022-10-23T11:43:30.992Z,0.50
2022-10-23T11:46:36.299Z,0.50
2022-10-23T11:49:06.930Z,0.40
2022-10-23T11:51:38.719Z,0.28
2022-10-23T11:54:24.379Z,0.47
2022-10-23T11:57:10.863Z,0.50
2022-10-23T12:00:01.773Z,0.50
2022-10-23T12:02:33.704Z,0.30
2022-10-23T12:05:07.322Z,0.30
2022-10-23T12:07:41.709Z,0.65
2022-10-23T12:10:24.844Z,0.20
2022-10-23T12:13:11.617Z,0.30
2022-10-23T12:15:39.715Z,0.20
2022-10-23T12:18:15.848Z,0.30
2022-10-23T12:21:00.085Z,0.30
2022-10-23T12:23:50.898Z,0.25
2022-10-23T12:26:27.765Z,0.30
2022-10-23T12:29:12.120Z,0.30
2022-10-23T12:34:30.906Z,0.50
2022-10-23T12:37:13.544Z,0.32
2022-10-23T12:39:44.410Z,0.20
2022-10-23T12:42:18.330Z,0.30
2022-10-23T12:47:19.697Z,0.57
2022-10-23T12:49:50.465Z,0.35
2022-10-23T12:52:24.532Z,0.30
2022-10-23T12:54:52.410Z,0.40
2022-10-23T12:57:22.952Z,0.47
2022-10-23T12:59:54.289Z,0.40
2022-10-23T13:02:25.865Z,0.40
2022-10-23T13:04:55.462Z,0.35
2022-10-23T13:07:28.248Z,0.35
2022-10-23T13:09:59.532Z,0.20
2022-10-23T13:12:34.478Z,0.57
2022-10-23T13:15:14.774Z,0.15
2022-10-23T13:18:09.080Z,0.40
2022-10-23T13:20:39.444Z,0.85
2022-10-23T13:23:31.080Z,0.52
2022-10-23T13:26:00.982Z,0.40
2022-10-23T13:28:30.715Z,0.38
2022-10-23T13:31:03.748Z,0.20
2022-10-23T13:33:39.164Z,0.40
2022-10-23T13:36:25.263Z,0.60
2022-10-23T13:39:04.933Z,0.50
2022-10-23T13:41:39.500Z,0.60
2022-10-23T13:44:08.176Z,0.63
2022-10-23T13:46:38.380Z,0.40
2022-10-23T13:49:06.373Z,0.70
2022-10-23T13:51:43.600Z,0.47
2022-10-23T13:54:17.133Z,0.40
2022-10-23T13:56:45.408Z,0.32
2022-10-23T13:59:13.680Z,0.30
2022-10-23T14:01:46.190Z,0.38
2022-10-23T14:04:26.210Z,0.30
2022-10-23T14:06:58.466Z,0.28
2022-10-23T14:09:30.294Z,0.60
2022-10-23T14:11:58.106Z,0.43
2022-10-23T14:14:25.904Z,0.40
2022-10-23T14:16:55.082Z,0.55
2022-10-23T14:19:25.067Z,0.50
2022-10-23T14:21:53.224Z,0.60
2022-10-23T14:24:26.687Z,0.77
2022-10-23T14:26:57.499Z,0.60
2022-10-23T14:29:27.733Z,0.70
2022-10-23T14:31:57.644Z,0.50
2022-10-23T14:34:26.228Z,0.50
2022-10-23T14:37:08.935Z,0.57
2022-10-23T14:39:37.386Z,0.55
2022-10-23T14:42:06.806Z,0.60
2022-10-23T14:44:34.619Z,0.47
2022-10-23T14:47:03.115Z,0.40
2022-10-23T14:49:32.452Z,0.40
2022-10-23T14:52:02.404Z,0.52
2022-10-23T14:54:34.481Z,0.30
2022-10-23T14:57:02.274Z,0.60
2022-10-23T14:59:39.402Z,0.55
2022-10-23T15:02:09.634Z,0.50
2022-10-23T15:04:37.421Z,0.50
2022-10-23T15:07:05.304Z,0.50
2022-10-23T15:09:39.691Z,0.35
2022-10-23T15:12:11.246Z,0.43
2022-10-23T15:14:40.398Z,0.65
2022-10-23T15:17:09.777Z,0.40
2022-10-23T15:19:40.813Z,0.50
2022-10-23T15:22:13.091Z,0.47
2022-10-23T15:24:40.849Z,0.38
2022-10-23T15:29:37.336Z,0.30
2022-10-23T15:32:11.444Z,0.40
2022-10-23T15:37:21.479Z,0.40
2022-10-23T15:39:49.345Z,0.43
2022-10-23T15:42:20.164Z,0.30
2022-10-23T15:44:50.614Z,0.40
2022-10-23T15:47:20.239Z,0.30
2022-10-23T15:49:47.990Z,0.30
2022-10-23T15:52:19.016Z,0.40
2022-10-23T15:54:47.003Z,0.40
2022-10-23T15:57:17.123Z,0.20
2022-10-23T15:59:45.024Z,0.30
2022-10-23T16:02:13.280Z,0.55
2022-10-23T16:04:42.659Z,0.40
2022-10-23T16:07:11.387Z,0.50
2022-10-23T16:09:39.225Z,0.50
2022-10-23T16:12:08.125Z,0.52
2022-10-23T16:14:45.067Z,0.60
2022-10-23T16:19:48.333Z,0.40
2022-10-23T16:22:17.492Z,0.35
2022-10-23T16:24:45.252Z,0.60
2022-10-23T16:27:13.342Z,0.60
2022-10-23T16:29:41.205Z,0.50
2022-10-23T16:32:09.065Z,0.52
2022-10-23T16:34:37.869Z,0.55
2022-10-23T16:37:07.228Z,0.60
2022-10-23T16:39:54.734Z,0.40
2022-10-23T16:43:07.809Z,0.50
2022-10-23T16:46:08.116Z,0.60
2022-10-23T16:48:36.761Z,0.40
2022-10-23T16:51:07.291Z,0.60
2022-10-23T16:53:39.880Z,0.80
2022-10-23T16:56:10.262Z,0.73
2022-10-23T16:58:40.827Z,0.40
2022-10-23T17:01:10.526Z,0.70
2022-10-23T17:03:43.794Z,0.70
2022-10-23T17:06:14.784Z,0.70
2022-10-23T17:08:52.543Z,0.60
2022-10-23T17:11:22.108Z,0.60
2022-10-23T17:13:55.175Z,0.70
2022-10-23T17:16:28.321Z,0.50
2022-10-23T17:18:56.542Z,0.60
2022-10-23T17:21:24.971Z,0.40
2022-10-23T17:23:54.101Z,0.60
2022-10-23T17:26:27.738Z,0.60
2022-10-23T17:28:55.753Z,0.50
2022-10-23T17:31:25.658Z,0.60
2022-10-23T17:33:56.843Z,0.45
2022-10-23T17:36:25.127Z,0.73
2022-10-23T17:38:54.565Z,0.50
2022-10-23T17:41:29.044Z,0.50
2022-10-23T17:43:57.713Z,0.55
2022-10-23T17:46:29.646Z,0.30
2022-10-23T17:48:58.122Z,0.30
2022-10-23T17:51:34.420Z,0.30
2022-10-23T17:54:05.702Z,0.30
2022-10-23T17:56:34.856Z,0.50
2022-10-23T17:59:05.973Z,0.57
2022-10-23T18:01:33.958Z,0.95
2022-10-23T18:04:03.974Z,0.47
2022-10-23T18:06:35.262Z,0.60
2022-10-23T18:09:06.708Z,0.50
2022-10-23T18:11:36.693Z,0.75
2022-10-23T18:14:08.380Z,1.10
2022-10-23T18:16:37.855Z,0.73
2022-10-23T18:19:06.074Z,0.60
2022-10-23T18:21:34.753Z,0.93
2022-10-23T18:24:14.203Z,0.60
2022-10-23T18:26:43.080Z,0.63
2022-10-23T18:29:12.667Z,0.60
2022-10-23T18:31:40.905Z,0.70
2022-10-23T18:34:13.213Z,0.40
2022-10-23T18:36:41.662Z,0.73
2022-10-23T18:39:15.387Z,0.40
2022-10-23T18:41:46.050Z,0.47
2022-10-23T18:44:17.223Z,0.35
2022-10-23T18:46:45.549Z,0.40
2022-10-23T18:49:13.866Z,0.50
2022-10-23T18:51:42.211Z,0.50
2022-10-23T18:54:15.001Z,0.50
2022-10-23T18:56:46.425Z,0.50
2022-10-23T18:59:16.279Z,0.60
2022-10-23T19:01:50.853Z,0.70
2022-10-23T19:04:19.218Z,0.70
2022-10-23T19:06:48.542Z,0.55
2022-10-23T19:09:18.420Z,0.50
2022-10-23T19:11:49.082Z,0.40
2022-10-23T19:14:16.870Z,0.70
2022-10-23T19:16:54.253Z,0.80
2022-10-23T19:19:25.510Z,0.90
2022-10-23T19:21:54.957Z,0.77
2022-10-23T19:24:33.593Z,0.82
2022-10-23T19:27:02.755Z,0.80
2022-10-23T19:29:31.260Z,0.90
2022-10-23T19:32:05.468Z,1.15
2022-10-23T19:34:33.287Z,0.70
2022-10-23T19:37:01.299Z,0.65
2022-10-23T19:39:33.322Z,0.70
2022-10-23T19:42:01.400Z,0.60
2022-10-23T19:44:29.576Z,0.52
2022-10-23T19:46:57.478Z,0.60
2022-10-23T19:49:25.206Z,0.40
2022-10-23T19:52:01.313Z,0.52
2022-10-23T19:54:30.943Z,0.50
2022-10-23T19:56:58.726Z,0.30
2022-10-23T19:59:26.699Z,0.45
2022-10-23T20:01:54.718Z,0.40
2022-10-23T20:04:22.692Z,0.85
2022-10-23T20:06:50.557Z,1.08
2022-10-23T20:09:18.294Z,0.60
2022-10-23T20:11:49.193Z,0.40
2022-10-23T20:14:20.232Z,0.63
2022-10-23T20:16:54.951Z,0.90
2022-10-23T20:19:23.859Z,0.98
2022-10-23T20:21:54.339Z,0.90
2022-10-23T20:24:22.813Z,0.40
2022-10-23T20:26:54.727Z,0.73
2022-10-23T20:29:37.353Z,0.80
2022-10-23T20:32:05.428Z,0.93
2022-10-23T20:34:33.514Z,0.52
2022-10-23T20:37:01.746Z,0.73
2022-10-23T20:39:35.561Z,0.65
2022-10-23T20:42:05.308Z,0.60
2022-10-23T20:44:38.157Z,0.88
2022-10-23T20:47:06.039Z,0.82
2022-10-23T20:49:33.774Z,0.93
2022-10-23T20:52:02.758Z,0.80
2022-10-23T20:54:31.726Z,0.70
2022-10-23T20:56:59.823Z,1.10
2022-10-23T20:59:31.245Z,0.73
2022-10-23T21:02:05.164Z,0.77
2022-10-23T21:07:09.856Z,0.60
2022-10-23T21:09:38.768Z,0.70
2022-10-23T21:12:10.260Z,0.70
2022-10-23T21:14:39.640Z,0.40
2022-10-23T21:17:16.704Z,0.40
2022-10-23T21:19:52.201Z,0.60
2022-10-23T21:22:20.104Z,0.50
2022-10-23T21:24:48.150Z,0.63
2022-10-23T21:27:16.206Z,0.55
2022-10-23T21:29:47.871Z,0.60
2022-10-23T21:32:15.734Z,0.50
2022-10-23T21:34:43.654Z,0.30
2022-10-23T21:37:13.468Z,0.52
2022-10-23T21:39:42.450Z,0.40
2022-10-23T21:42:20.170Z,0.45
2022-10-23T21:44:49.351Z,0.40
2022-10-23T21:47:17.584Z,0.43
2022-10-23T21:49:45.637Z,0.35
2022-10-23T21:52:19.052Z,0.47
2022-10-23T21:54:52.815Z,0.65
2022-10-23T21:57:23.916Z,0.40
2022-10-23T21:59:55.536Z,0.30
2022-10-23T22:02:26.324Z,0.43
2022-10-23T22:04:54.334Z,0.57
2022-10-23T22:07:22.202Z,0.60
2022-10-23T22:10:17.653Z,0.40
2022-10-23T22:12:48.174Z,0.70
2022-10-23T22:15:17.601Z,0.57
2022-10-23T22:17:45.748Z,0.50
2022-10-23T22:20:13.770Z,0.50
2022-10-23T22:22:44.712Z,0.63
2022-10-23T22:25:12.460Z,0.57
2022-10-23T22:30:23.516Z,0.45
2022-10-23T22:32:51.339Z,0.60
2022-10-23T22:35:20.728Z,0.70
2022-10-23T22:37:51.600Z,0.50
2022-10-23T22:40:19.441Z,0.60
2022-10-23T22:42:47.377Z,0.55
2022-10-23T22:45:15.294Z,0.73
2022-10-23T22:47:49.276Z,0.60
2022-10-23T22:50:17.734Z,0.88
2022-10-23T22:52:45.756Z,0.52
2022-10-23T22:55:14.012Z,0.55
2022-10-23T22:57:42.093Z,0.35
2022-10-23T23:00:11.190Z,0.55
2022-10-23T23:02:38.909Z,0.30
2022-10-23T23:05:20.217Z,0.57
2022-10-23T23:07:47.949Z,0.93
2022-10-23T23:10:15.931Z,0.50
2022-10-23T23:12:43.675Z,0.50
2022-10-23T23:15:11.760Z,0.50
2022-10-23T23:17:39.516Z,0.40
2022-10-23T23:20:08.011Z,0.38
2022-10-23T23:22:39.913Z,0.70
2022-10-23T23:25:12.942Z,0.47
2022-10-23T23:27:41.228Z,0.70
2022-10-23T23:30:10.501Z,0.88
2022-10-23T23:32:41.366Z,0.40
2022-10-23T23:35:10.041Z,0.47
2022-10-23T23:37:39.122Z,0.30
2022-10-23T23:40:08.526Z,0.40
2022-10-23T23:42:36.580Z,0.40
2022-10-23T23:45:14.249Z,0.55
2022-10-23T23:47:43.139Z,0.60
2022-10-23T23:50:17.446Z,0.50
2022-10-23T23:52:48.695Z,0.50
2022-10-23T23:55:16.739Z,0.35
2022-10-23T23:57:44.654Z,0.50
